Time;durP1;ratioP1;P1;durP2;ratioP2;P2;SDS_P1;SDS_P2;PMS_P1;PMS_P2;Temp;Humidity;BMP_temperature;BMP_pressure;BME280_temperature;BME280_humidity;BME280_pressure;Samples;Min_cycle;Max_cycle;Signal;HPM_P1;HPM_P2
2021/08/10 00:00:57;;;;;;;2.10;1.90;;;18.80;99.90;;;;;;6248764;28;20203;-69
2021/08/10 00:03:59;;;;;;;5.37;2.50;;;18.70;99.90;;;;;;6247276;28;20196;-71
2021/08/10 00:07:01;;;;;;;3.27;2.50;;;18.70;99.90;;;;;;6248547;28;20200;-71
2021/08/10 00:10:05;;;;;;;3.03;2.50;;;18.60;99.90;;;;;;6248625;28;20284;-70
2021/08/10 00:13:07;;;;;;;4.27;2.40;;;18.60;99.90;;;;;;6248519;28;20203;-71
2021/08/10 00:16:09;;;;;;;5.17;2.67;;;18.50;99.90;;;;;;6246892;28;20247;-69
2021/08/10 00:19:12;;;;;;;3.70;2.33;;;18.40;99.90;;;;;;6248575;28;20216;-71
2021/08/10 00:22:14;;;;;;;3.20;2.20;;;18.40;99.90;;;;;;6248362;28;20223;-70
2021/08/10 00:25:16;;;;;;;4.30;2.43;;;18.20;99.90;;;;;;6246791;28;20220;-70
2021/08/10 00:28:19;;;;;;;7.23;2.50;;;18.10;99.90;;;;;;6246994;28;20180;-72
2021/08/10 00:31:21;;;;;;;3.57;2.23;;;18.00;99.90;;;;;;6246709;28;20683;-70
2021/08/10 00:34:24;;;;;;;2.73;2.33;;;18.00;99.90;;;;;;6246965;28;20207;-69
2021/08/10 00:37:26;;;;;;;4.70;2.80;;;17.90;99.90;;;;;;6263400;28;20675;-70
2021/08/10 00:40:29;;;;;;;6.23;2.50;;;17.90;99.90;;;;;;6245649;28;20199;-70
2021/08/10 00:43:39;;;;;;;3.47;2.60;;;17.90;99.90;;;;;;6246935;28;20200;-69
2021/08/10 00:47:01;;;;;;;2.90;2.33;;;17.90;99.90;;;;;;6249387;28;20250;-70
2021/08/10 00:50:06;;;;;;;3.93;2.77;;;17.90;99.90;;;;;;6248020;28;20192;-70
2021/08/10 00:53:14;;;;;;;2.90;2.33;;;17.90;99.90;;;;;;6247646;28;20543;-70
2021/08/10 00:56:17;;;;;;;2.67;1.80;;;17.90;99.90;;;;;;6246309;28;20295;-70
2021/08/10 00:59:23;;;;;;;2.50;2.20;;;17.90;99.90;;;;;;6263022;28;20219;-70
2021/08/10 01:02:31;;;;;;;3.13;2.20;;;17.90;99.90;;;;;;6247284;28;20673;-70
2021/08/10 01:05:40;;;;;;;4.07;2.17;;;17.90;99.90;;;;;;6262642;28;20204;-70
2021/08/10 01:08:57;;;;;;;2.83;2.03;;;17.80;99.90;;;;;;6245867;28;20536;-70
2021/08/10 01:12:13;;;;;;;3.63;2.23;;;17.80;99.90;;;;;;6246159;28;20219;-69
2021/08/10 01:15:20;;;;;;;3.77;2.20;;;17.80;99.90;;;;;;6245975;28;20294;-69
2021/08/10 01:18:30;;;;;;;2.60;2.10;;;17.70;99.90;;;;;;6245838;28;20196;-70
2021/08/10 01:21:37;;;;;;;4.70;2.20;;;17.70;99.90;;;;;;6245804;28;20718;-70
2021/08/10 01:24:55;;;;;;;2.93;1.80;;;17.60;99.90;;;;;;6245781;28;20228;-70
2021/08/10 01:28:29;;;;;;;3.47;2.00;;;17.60;99.90;;;;;;6247117;28;20243;-70
2021/08/10 01:31:37;;;;;;;2.57;2.00;;;17.60;99.90;;;;;;6246854;28;20640;-70
2021/08/10 01:34:47;;;;;;;4.37;1.93;;;17.60;99.90;;;;;;6245508;28;20232;-70
2021/08/10 01:37:59;;;;;;;2.77;2.07;;;17.50;99.90;;;;;;6262035;28;20482;-69
2021/08/10 01:41:03;;;;;;;3.77;2.40;;;17.40;99.90;;;;;;6246737;28;20192;-69
2021/08/10 01:44:06;;;;;;;2.40;2.17;;;17.40;99.90;;;;;;6245294;28;20722;-70
2021/08/10 01:47:10;;;;;;;2.97;2.00;;;17.40;99.90;;;;;;6261655;28;20212;-71
2021/08/10 01:50:16;;;;;;;2.10;1.60;;;17.40;99.90;;;;;;6261905;28;20192;-70
2021/08/10 01:53:29;;;;;;;2.70;1.80;;;17.40;99.90;;;;;;6261212;28;20200;-70
2021/08/10 01:56:34;;;;;;;2.83;2.00;;;17.40;99.90;;;;;;6245259;28;20196;-70
2021/08/10 01:59:43;;;;;;;2.40;2.10;;;17.40;99.90;;;;;;6261608;28;20211;-70
2021/08/10 02:02:45;;;;;;;3.33;1.70;;;17.40;99.90;;;;;;6245410;28;20531;-70
2021/08/10 02:06:02;;;;;;;2.70;1.93;;;17.40;99.90;;;;;;6246666;28;20216;-70
2021/08/10 02:09:09;;;;;;;2.47;2.17;;;17.40;99.90;;;;;;6244970;28;20188;-70
2021/08/10 02:12:14;;;;;;;2.80;1.80;;;17.40;99.90;;;;;;6244545;28;20222;-70
2021/08/10 02:15:17;;;;;;;4.70;1.60;;;17.40;99.90;;;;;;6245974;28;20290;-69
2021/08/10 02:18:27;;;;;;;3.47;1.80;;;17.40;99.90;;;;;;6229393;28;20201;-70
2021/08/10 02:21:46;;;;;;;2.43;1.80;;;17.30;99.90;;;;;;6245824;28;20512;-70
2021/08/10 02:24:52;;;;;;;2.37;1.83;;;17.30;99.90;;;;;;6244457;28;20223;-70
2021/08/10 02:27:58;;;;;;;2.70;2.20;;;17.30;99.90;;;;;;6244542;28;20204;-71
2021/08/10 02:31:03;;;;;;;1.93;1.57;;;17.30;99.90;;;;;;6244537;28;20311;-70
2021/08/10 02:34:10;;;;;;;2.77;1.90;;;17.20;99.90;;;;;;6261153;28;20191;-70
2021/08/10 02:37:14;;;;;;;2.20;1.80;;;17.20;99.90;;;;;;6244284;28;20230;-70
2021/08/10 02:40:23;;;;;;;2.40;2.00;;;17.20;99.90;;;;;;6244952;28;20570;-69
2021/08/10 02:43:29;;;;;;;5.03;1.80;;;17.20;99.90;;;;;;6244391;28;20241;-70
2021/08/10 02:46:34;;;;;;;2.10;1.70;;;17.20;99.90;;;;;;6245275;28;20200;-70
2021/08/10 02:49:39;;;;;;;2.60;1.90;;;17.10;99.90;;;;;;6244043;28;20211;-70
2021/08/10 02:52:42;;;;;;;3.17;2.00;;;17.00;99.90;;;;;;6244249;28;20209;-70
2021/08/10 02:55:54;;;;;;;3.73;1.93;;;17.00;99.90;;;;;;6245312;28;20565;-70
2021/08/10 02:59:09;;;;;;;3.70;2.10;;;17.00;99.90;;;;;;6245276;28;20250;-70
2021/08/10 03:02:18;;;;;;;4.60;2.10;;;16.90;99.90;;;;;;6244041;28;20196;-70
2021/08/10 03:05:28;;;;;;;2.10;1.90;;;16.80;99.90;;;;;;6247960;28;20218;-70
2021/08/10 03:08:37;;;;;;;2.47;1.90;;;16.80;99.90;;;;;;6248908;28;20188;-70
2021/08/10 03:11:42;;;;;;;2.30;1.77;;;16.80;99.90;;;;;;6265604;28;20199;-70
2021/08/10 03:14:48;;;;;;;6.30;1.90;;;16.80;99.90;;;;;;6265685;28;20662;-71
2021/08/10 03:17:56;;;;;;;3.20;2.07;;;16.80;99.90;;;;;;6248508;28;20234;-70
2021/08/10 03:21:03;;;;;;;4.77;1.80;;;16.80;99.90;;;;;;6250115;28;20184;-71
2021/08/10 03:24:09;;;;;;;2.37;1.63;;;16.70;99.90;;;;;;6248698;28;20202;-71
2021/08/10 03:27:13;;;;;;;2.40;1.93;;;16.70;99.90;;;;;;6240214;28;20703;-71
2021/08/10 03:30:18;;;;;;;2.40;2.00;;;16.70;99.90;;;;;;6253230;28;20513;-70
2021/08/10 03:33:29;;;;;;;2.13;1.80;;;16.60;99.90;;;;;;6265223;28;20196;-71
2021/08/10 03:36:41;;;;;;;2.17;1.97;;;16.60;99.90;;;;;;6249289;28;20220;-70
2021/08/10 03:39:50;;;;;;;2.10;1.80;;;16.60;99.90;;;;;;6248570;28;20640;-70
2021/08/10 03:42:53;;;;;;;2.83;1.90;;;16.60;99.90;;;;;;6248248;28;20491;-71
2021/08/10 03:45:59;;;;;;;2.73;1.57;;;16.60;99.90;;;;;;6247978;28;20721;-71
2021/08/10 03:49:04;;;;;;;2.87;1.90;;;16.50;99.90;;;;;;6264397;28;20242;-70
2021/08/10 03:52:10;;;;;;;2.83;2.13;;;16.50;99.90;;;;;;6264338;28;20290;-71
2021/08/10 03:55:13;;;;;;;2.50;2.00;;;16.50;99.90;;;;;;6247862;28;20677;-70
2021/08/10 03:58:17;;;;;;;4.13;2.13;;;16.50;99.90;;;;;;6247817;28;20687;-70
2021/08/10 04:01:20;;;;;;;3.57;2.07;;;16.50;99.90;;;;;;6247690;28;20609;-70
2021/08/10 04:04:27;;;;;;;4.70;2.17;;;16.40;99.90;;;;;;6247407;28;20238;-70
2021/08/10 04:07:38;;;;;;;3.13;2.00;;;16.40;99.90;;;;;;6263573;28;20266;-70
2021/08/10 04:10:46;;;;;;;2.03;1.60;;;16.40;99.90;;;;;;6247242;28;20188;-71
2021/08/10 04:13:54;;;;;;;2.03;1.70;;;16.50;99.90;;;;;;6246842;28;20197;-71
2021/08/10 04:17:06;;;;;;;2.53;2.17;;;16.50;99.90;;;;;;6246204;28;20244;-72
2021/08/10 04:20:13;;;;;;;2.17;1.90;;;16.60;99.90;;;;;;6247704;28;20200;-71
2021/08/10 04:23:16;;;;;;;3.30;2.07;;;16.60;99.90;;;;;;6238869;28;20200;-71
2021/08/10 04:26:18;;;;;;;3.23;1.70;;;16.70;99.90;;;;;;6243538;28;20226;-72
2021/08/10 04:29:21;;;;;;;5.00;2.10;;;16.70;99.90;;;;;;6246458;28;20196;-70
2021/08/10 04:32:24;;;;;;;3.60;1.60;;;16.70;99.90;;;;;;6246356;28;20243;-72
2021/08/10 04:35:27;;;;;;;4.30;2.07;;;16.80;99.90;;;;;;6247671;28;20715;-73
2021/08/10 04:38:30;;;;;;;2.50;2.00;;;16.80;99.90;;;;;;6246162;28;20204;-71
2021/08/10 04:41:32;;;;;;;3.60;1.90;;;16.90;99.90;;;;;;6246525;28;20219;-71
2021/08/10 04:44:36;;;;;;;2.13;1.80;;;16.90;99.90;;;;;;6245963;28;20215;-70
2021/08/10 04:47:38;;;;;;;3.33;2.03;;;16.80;99.90;;;;;;6245701;28;20628;-71
2021/08/10 04:50:41;;;;;;;2.10;1.50;;;16.80;99.90;;;;;;6246113;28;20265;-70
2021/08/10 04:53:49;;;;;;;2.90;2.20;;;16.80;99.90;;;;;;6246193;28;20287;-71
2021/08/10 04:56:51;;;;;;;4.13;1.70;;;16.70;99.90;;;;;;6245991;28;20204;-71
2021/08/10 04:59:54;;;;;;;2.33;1.93;;;16.70;99.90;;;;;;6262284;28;20210;-71
2021/08/10 05:02:58;;;;;;;2.33;1.83;;;16.70;99.90;;;;;;6246195;28;20682;-71
2021/08/10 05:06:04;;;;;;;4.30;1.97;;;16.70;99.90;;;;;;6262309;28;20311;-71
2021/08/10 05:09:07;;;;;;;1.73;1.60;;;16.70;99.90;;;;;;6247325;28;20286;-72
2021/08/10 05:12:11;;;;;;;2.07;1.87;;;16.70;99.90;;;;;;6262229;28;20292;-70
2021/08/10 05:15:16;;;;;;;3.03;1.67;;;16.70;99.90;;;;;;6245564;28;20196;-70
2021/08/10 05:18:19;;;;;;;2.57;1.90;;;16.70;99.90;;;;;;6245310;28;20232;-70
2021/08/10 05:21:22;;;;;;;3.10;1.80;;;16.70;99.90;;;;;;6245694;28;20196;-70
2021/08/10 05:24:29;;;;;;;2.40;1.87;;;16.70;99.90;;;;;;6262202;28;20192;-70
2021/08/10 05:27:38;;;;;;;2.93;2.10;;;16.70;99.90;;;;;;6244295;28;20341;-70
2021/08/10 05:30:42;;;;;;;5.10;2.27;;;16.60;99.90;;;;;;6245210;28;20524;-72
2021/08/10 05:33:45;;;;;;;2.43;1.80;;;16.60;99.90;;;;;;6245274;28;20198;-71
2021/08/10 05:36:48;;;;;;;3.23;1.80;;;16.50;99.90;;;;;;6244974;28;20216;-71
2021/08/10 05:39:51;;;;;;;2.83;1.93;;;16.50;99.90;;;;;;6261451;28;20581;-72
2021/08/10 05:42:53;;;;;;;3.23;2.00;;;16.60;99.90;;;;;;6244840;28;20206;-71
2021/08/10 05:45:56;;;;;;;2.40;1.63;;;16.60;99.90;;;;;;6261163;28;20289;-71
2021/08/10 05:48:59;;;;;;;2.73;2.13;;;16.60;99.90;;;;;;6244501;28;20659;-71
2021/08/10 05:52:03;;;;;;;3.30;2.10;;;16.60;99.90;;;;;;6261112;28;20676;-71
2021/08/10 05:55:07;;;;;;;3.17;1.93;;;16.70;99.90;;;;;;6247403;28;20313;-71
2021/08/10 05:58:09;;;;;;;5.77;2.30;;;16.70;99.90;;;;;;6244419;28;20196;-71
2021/08/10 06:01:12;;;;;;;2.00;1.77;;;16.80;99.90;;;;;;6261118;28;20281;-71
2021/08/10 06:04:16;;;;;;;4.10;1.77;;;16.90;99.90;;;;;;6244708;28;20192;-71
2021/08/10 06:07:19;;;;;;;3.30;1.87;;;16.90;99.90;;;;;;6260995;28;20718;-71
2021/08/10 06:10:21;;;;;;;2.80;2.00;;;17.00;99.90;;;;;;6244599;28;20200;-72
2021/08/10 06:13:24;;;;;;;2.57;1.80;;;17.00;99.90;;;;;;6260973;28;20202;-71
2021/08/10 06:16:26;;;;;;;2.77;1.70;;;17.10;99.90;;;;;;6244230;28;20231;-70
2021/08/10 06:19:34;;;;;;;3.40;2.30;;;17.10;99.90;;;;;;6244215;28;20660;-69
2021/08/10 06:22:37;;;;;;;4.03;2.20;;;17.10;99.90;;;;;;6244457;28;20206;-68
2021/08/10 06:25:41;;;;;;;4.23;2.03;;;17.20;99.90;;;;;;6244063;28;20216;-70
2021/08/10 06:28:44;;;;;;;2.73;1.80;;;17.20;99.90;;;;;;6243971;28;20192;-68
2021/08/10 06:31:46;;;;;;;3.47;2.03;;;17.30;99.90;;;;;;6260856;28;20200;-69
2021/08/10 06:34:49;;;;;;;2.63;2.00;;;17.30;99.90;;;;;;6244568;28;20720;-69
2021/08/10 06:38:01;;;;;;;1.93;1.50;;;17.40;99.90;;;;;;6244569;28;20184;-69
2021/08/10 06:41:09;;;;;;;2.60;2.00;;;17.40;99.90;;;;;;6260272;28;20208;-69
2021/08/10 06:44:12;;;;;;;2.53;2.10;;;17.50;99.90;;;;;;6243794;28;20207;-70
2021/08/10 06:47:28;;;;;;;5.30;2.03;;;17.60;99.90;;;;;;6260323;28;20295;-72
2021/08/10 06:50:30;;;;;;;2.77;2.27;;;17.80;99.90;;;;;;6243615;28;20199;-70
2021/08/10 06:53:35;;;;;;;2.57;1.80;;;17.90;99.90;;;;;;6244035;28;20199;-70
2021/08/10 06:56:37;;;;;;;3.00;1.97;;;18.10;99.90;;;;;;6243208;28;20192;-70
2021/08/10 06:59:40;;;;;;;2.83;2.10;;;18.30;99.90;;;;;;6260152;28;20648;-70
2021/08/10 07:02:45;;;;;;;7.20;2.40;;;18.50;99.90;;;;;;6243755;28;20527;-70
2021/08/10 07:05:50;;;;;;;2.37;1.63;;;18.70;99.90;;;;;;6243219;28;20223;-70
2021/08/10 07:08:56;;;;;;;4.50;2.10;;;19.00;99.90;;;;;;6244588;28;20192;-71
2021/08/10 07:11:58;;;;;;;2.03;1.40;;;19.30;99.90;;;;;;6259823;28;20726;-70
2021/08/10 07:15:03;;;;;;;3.43;1.70;;;19.60;99.90;;;;;;6243384;28;20195;-70
2021/08/10 07:18:06;;;;;;;2.90;1.97;;;19.90;99.90;;;;;;6243139;28;20723;-70
2021/08/10 07:21:09;;;;;;;3.93;2.00;;;20.20;99.90;;;;;;6259971;28;20804;-70
2021/08/10 07:24:19;;;;;;;2.27;1.70;;;20.50;99.90;;;;;;6244464;28;20607;-70
2021/08/10 07:27:21;;;;;;;2.40;1.87;;;20.80;99.90;;;;;;6243839;28;20208;-71
2021/08/10 07:30:26;;;;;;;4.40;2.10;;;21.10;99.90;;;;;;6243722;28;20203;-70
2021/08/10 07:33:31;;;;;;;3.93;1.60;;;21.40;99.90;;;;;;6243355;28;20219;-70
2021/08/10 07:36:34;;;;;;;1.93;1.67;;;21.70;99.90;;;;;;6218835;28;20642;-71
2021/08/10 07:39:37;;;;;;;1.83;1.70;;;22.10;99.90;;;;;;6239846;28;20571;-71
2021/08/10 07:42:41;;;;;;;2.47;1.70;;;22.50;99.90;;;;;;6243240;28;20241;-71
2021/08/10 07:45:43;;;;;;;2.57;2.17;;;22.80;99.90;;;;;;6243083;28;20202;-71
2021/08/10 07:48:51;;;;;;;2.00;1.80;;;23.20;99.90;;;;;;6227467;28;20607;-71
2021/08/10 07:51:55;;;;;;;2.80;2.10;;;23.60;99.90;;;;;;6246762;28;20188;-71
2021/08/10 07:54:57;;;;;;;3.00;1.70;;;23.90;99.90;;;;;;6264350;28;20192;-71
2021/08/10 07:58:00;;;;;;;2.90;2.07;;;24.20;99.90;;;;;;6247450;28;20202;-69
2021/08/10 08:01:04;;;;;;;2.03;1.83;;;24.60;99.90;;;;;;6247505;28;20199;-71
2021/08/10 08:04:06;;;;;;;3.97;2.00;;;24.90;99.90;;;;;;6248989;28;20200;-70
2021/08/10 08:07:09;;;;;;;2.10;1.80;;;25.20;99.70;;;;;;6251590;28;20299;-70
2021/08/10 08:10:14;;;;;;;2.63;1.90;;;25.50;99.00;;;;;;6257408;28;20242;-71
2021/08/10 08:13:19;;;;;;;2.10;1.90;;;25.70;98.20;;;;;;6247556;28;20189;-71
2021/08/10 08:16:22;;;;;;;1.63;1.50;;;26.00;98.10;;;;;;6246706;28;20558;-69
2021/08/10 08:19:25;;;;;;;2.47;1.70;;;26.20;96.70;;;;;;6246943;28;20287;-69
2021/08/10 08:22:30;;;;;;;2.03;1.65;;;26.50;95.90;;;;;;6263352;28;20200;-69
2021/08/10 08:25:33;;;;;;;2.38;2.10;;;26.80;95.70;;;;;;6263548;28;20660;-70
2021/08/10 08:28:35;;;;;;;2.65;1.73;;;27.10;95.00;;;;;;6247530;28;20226;-68
2021/08/10 08:31:38;;;;;;;1.90;1.73;;;27.30;94.70;;;;;;6251873;28;20573;-68
2021/08/10 08:34:40;;;;;;;2.72;2.35;;;27.50;93.90;;;;;;6250337;28;20219;-69
2021/08/10 08:37:43;;;;;;;2.30;2.10;;;27.70;93.70;;;;;;6266006;28;20222;-71
2021/08/10 08:40:46;;;;;;;3.25;1.83;;;27.80;93.00;;;;;;6249477;28;20281;-68
2021/08/10 08:43:50;;;;;;;2.97;2.00;;;28.00;92.20;;;;;;6266486;28;20670;-68
2021/08/10 08:46:54;;;;;;;2.42;2.03;;;28.30;91.60;;;;;;6249803;28;20212;-68
2021/08/10 08:49:59;;;;;;;4.55;2.30;;;28.40;87.80;;;;;;6265000;28;20686;-67
2021/08/10 08:53:07;;;;;;;2.50;2.30;;;28.50;85.30;;;;;;6248641;28;20208;-68
2021/08/10 08:56:09;;;;;;;2.17;1.98;;;28.80;88.00;;;;;;6250112;28;20184;-68
2021/08/10 08:59:12;;;;;;;2.00;1.80;;;29.00;86.60;;;;;;6248007;28;20200;-70
2021/08/10 09:02:18;;;;;;;2.75;2.50;;;29.20;83.10;;;;;;6247557;28;20196;-69
2021/08/10 09:05:23;;;;;;;4.40;2.35;;;29.40;83.30;;;;;;6248732;28;20203;-69
2021/08/10 09:08:30;;;;;;;2.17;1.98;;;29.70;84.10;;;;;;6249843;28;20204;-68
2021/08/10 09:11:36;;;;;;;3.60;2.50;;;29.90;82.20;;;;;;6248319;28;20203;-69
2021/08/10 09:14:48;;;;;;;5.68;2.40;;;30.10;72.70;;;;;;6245828;28;20218;-69
2021/08/10 09:17:58;;;;;;;2.85;1.85;;;30.00;67.60;;;;;;6246315;28;20230;-69
2021/08/10 09:21:07;;;;;;;2.70;2.30;;;29.90;67.20;;;;;;6262101;28;20200;-69
2021/08/10 09:24:13;;;;;;;3.00;2.22;;;29.80;67.10;;;;;;6246742;28;20460;-68
2021/08/10 09:27:26;;;;;;;2.58;2.22;;;29.90;67.40;;;;;;6246831;28;20607;-68
2021/08/10 09:30:29;;;;;;;2.55;2.10;;;30.00;64.30;;;;;;6245399;28;20231;-68
2021/08/10 09:33:40;;;;;;;5.05;2.22;;;30.00;61.00;;;;;;6261821;28;20219;-69
2021/08/10 09:36:43;;;;;;;5.63;2.30;;;30.00;63.40;;;;;;6245081;28;20219;-70
2021/08/10 09:39:46;;;;;;;3.13;2.10;;;29.90;59.90;;;;;;6261590;28;20192;-70
2021/08/10 09:42:49;;;;;;;2.47;2.22;;;29.90;59.50;;;;;;6244888;28;20200;-70
2021/08/10 09:46:06;;;;;;;2.47;2.28;;;30.00;59.10;;;;;;6261425;28;20188;-69
2021/08/10 09:49:09;;;;;;;3.42;2.10;;;30.40;60.70;;;;;;6246988;28;20291;-70
2021/08/10 09:52:28;;;;;;;2.80;2.35;;;30.90;59.30;;;;;;6247183;28;20703;-69
2021/08/10 09:55:33;;;;;;;3.10;2.35;;;31.10;57.30;;;;;;6245516;28;20192;-69
2021/08/10 09:58:58;;;;;;;6.95;2.40;;;31.00;57.20;;;;;;6245789;28;20659;-70
2021/08/10 10:02:01;;;;;;;2.67;2.15;;;30.90;58.10;;;;;;6222156;28;20545;-70
2021/08/10 10:05:04;;;;;;;2.53;2.33;;;31.00;59.30;;;;;;6229162;28;20219;-70
2021/08/10 10:08:22;;;;;;;5.18;2.53;;;31.20;57.20;;;;;;6244377;28;20585;-71
2021/08/10 10:11:25;;;;;;;2.83;2.50;;;31.60;57.50;;;;;;6245831;28;20189;-70
2021/08/10 10:14:29;;;;;;;3.90;2.53;;;31.60;56.10;;;;;;6244611;28;20295;-70
2021/08/10 10:17:33;;;;;;;2.47;2.28;;;31.80;56.10;;;;;;6243808;28;20247;-70
2021/08/10 10:20:39;;;;;;;3.65;2.30;;;31.90;55.40;;;;;;6243931;28;20227;-70
2021/08/10 10:23:42;;;;;;;2.78;2.17;;;32.20;55.80;;;;;;6245711;28;20192;-70
2021/08/10 10:26:48;;;;;;;2.50;2.30;;;32.20;55.70;;;;;;6245497;28;20286;-71
2021/08/10 10:29:54;;;;;;;2.08;1.90;;;32.10;54.40;;;;;;6260333;28;20259;-71
2021/08/10 10:32:58;;;;;;;2.47;2.03;;;32.00;53.50;;;;;;6245663;28;20184;-71
2021/08/10 10:36:02;;;;;;;2.28;2.08;;;32.30;53.80;;;;;;6244252;28;20241;-70
2021/08/10 10:39:07;;;;;;;2.53;2.30;;;32.60;53.90;;;;;;6244348;28;20188;-70
2021/08/10 10:42:13;;;;;;;2.90;2.40;;;32.70;51.50;;;;;;6245709;28;20608;-71
2021/08/10 10:45:32;;;;;;;3.00;2.70;;;32.50;51.50;;;;;;6245295;28;20199;-70
2021/08/10 10:48:37;;;;;;;2.30;2.10;;;32.50;50.40;;;;;;6244944;28;20679;-71
2021/08/10 10:51:40;;;;;;;4.05;2.35;;;32.50;50.50;;;;;;6245631;28;20199;-69
2021/08/10 10:54:46;;;;;;;2.60;2.13;;;32.80;52.10;;;;;;6243928;28;20619;-70
2021/08/10 10:57:48;;;;;;;2.67;2.08;;;33.00;51.80;;;;;;6243931;28;20196;-69
2021/08/10 11:01:11;;;;;;;2.58;2.25;;;32.90;50.50;;;;;;6245220;28;20640;-71
2021/08/10 11:04:14;;;;;;;2.65;2.05;;;32.80;52.60;;;;;;6243466;28;20283;-70
2021/08/10 11:07:37;;;;;;;2.47;2.28;;;33.10;52.70;;;;;;6245224;28;20226;-69
2021/08/10 11:10:44;;;;;;;3.80;2.53;;;33.30;51.40;;;;;;6260395;28;20656;-70
2021/08/10 11:13:46;;;;;;;2.28;2.08;;;33.40;51.30;;;;;;6244883;28;20767;-70
2021/08/10 11:17:07;;;;;;;2.83;2.50;;;33.60;50.90;;;;;;6244528;28;20656;-69
2021/08/10 11:20:26;;;;;;;2.92;2.00;;;34.00;50.10;;;;;;6243401;28;20211;-69
2021/08/10 11:23:31;;;;;;;2.75;2.45;;;33.90;50.80;;;;;;6243512;28;20204;-70
2021/08/10 11:26:34;;;;;;;4.85;2.70;;;33.80;49.20;;;;;;6262881;28;20627;-71
2021/08/10 11:29:42;;;;;;;2.22;2.03;;;33.90;49.30;;;;;;6249700;28;20187;-71
2021/08/10 11:32:47;;;;;;;2.55;2.30;;;34.20;49.10;;;;;;6248175;28;20195;-70
2021/08/10 11:35:50;;;;;;;2.58;2.38;;;34.20;49.70;;;;;;6249512;28;20272;-70
2021/08/10 11:38:52;;;;;;;2.80;2.10;;;34.50;52.20;;;;;;6249673;28;20275;-70
2021/08/10 11:41:57;;;;;;;3.40;2.38;;;34.90;52.90;;;;;;6249467;28;20199;-70
2021/08/10 11:45:02;;;;;;;2.50;2.30;;;35.10;50.70;;;;;;6250115;28;20204;-70
2021/08/10 11:48:04;;;;;;;2.95;2.65;;;34.90;48.70;;;;;;6248863;28;20219;-70
2021/08/10 11:51:18;;;;;;;2.78;2.25;;;34.60;48.50;;;;;;6249163;28;20200;-70
2021/08/10 11:54:24;;;;;;;2.20;1.95;;;34.40;48.30;;;;;;6249017;28;20586;-70
2021/08/10 11:57:26;;;;;;;2.97;2.78;;;34.50;48.70;;;;;;6249204;28;20205;-70
2021/08/10 12:00:31;;;;;;;2.67;2.47;;;34.60;47.40;;;;;;6249086;28;20195;-70
2021/08/10 12:03:33;;;;;;;2.40;2.20;;;34.80;48.20;;;;;;6264590;28;20659;-69
2021/08/10 12:06:36;;;;;;;2.60;2.40;;;35.10;48.30;;;;;;6247699;28;20188;-70
2021/08/10 12:09:39;;;;;;;3.22;2.50;;;35.20;47.50;;;;;;6248715;28;20191;-70
2021/08/10 12:12:41;;;;;;;4.18;2.40;;;34.60;46.30;;;;;;6248817;28;20191;-70
2021/08/10 12:15:45;;;;;;;2.50;2.25;;;34.20;47.20;;;;;;6248614;28;20677;-70
2021/08/10 12:18:49;;;;;;;2.30;2.10;;;34.20;48.10;;;;;;6248998;28;20300;-71
2021/08/10 12:21:52;;;;;;;3.58;2.35;;;34.40;47.00;;;;;;6248277;28;20192;-70
2021/08/10 12:25:00;;;;;;;3.63;2.20;;;34.40;47.60;;;;;;6246517;28;20206;-69
2021/08/10 12:28:07;;;;;;;5.32;2.55;;;34.70;47.30;;;;;;6247825;28;20585;-69
2021/08/10 12:31:11;;;;;;;3.70;2.40;;;34.80;45.90;;;;;;6263876;28;20699;-71
2021/08/10 12:34:14;;;;;;;2.70;2.50;;;34.50;47.10;;;;;;6263581;28;20184;-70
2021/08/10 12:37:26;;;;;;;3.30;2.30;;;34.50;47.70;;;;;;6247045;28;20192;-70
2021/08/10 12:40:29;;;;;;;2.50;2.30;;;34.50;47.90;;;;;;6246805;28;20643;-70
2021/08/10 12:43:32;;;;;;;3.42;2.35;;;35.00;48.10;;;;;;6248033;28;20965;-72
2021/08/10 12:46:35;;;;;;;2.92;2.20;;;35.40;46.60;;;;;;6246532;28;20192;-71
2021/08/10 12:49:40;;;;;;;2.90;2.60;;;35.70;48.70;;;;;;6246351;28;20220;-70
2021/08/10 12:52:44;;;;;;;3.17;2.40;;;35.90;47.10;;;;;;6246682;28;20215;-69
2021/08/10 12:55:51;;;;;;;3.42;2.50;;;36.00;46.20;;;;;;6248412;28;20611;-69
2021/08/10 12:58:53;;;;;;;2.88;2.10;;;36.10;45.80;;;;;;6247223;28;20274;-70
2021/08/10 13:01:55;;;;;;;2.45;2.22;;;35.90;45.70;;;;;;6262297;28;20503;-68
2021/08/10 13:04:59;;;;;;;2.50;2.30;;;36.10;45.80;;;;;;6247037;28;20195;-67
2021/08/10 13:08:08;;;;;;;2.45;2.10;;;35.80;44.80;;;;;;6245577;28;20212;-69
2021/08/10 13:11:21;;;;;;;2.15;2.03;;;35.70;46.00;;;;;;6246842;28;20188;-68
2021/08/10 13:14:24;;;;;;;3.55;2.10;;;35.90;45.10;;;;;;6246247;28;20549;-72
2021/08/10 13:17:28;;;;;;;2.45;2.25;;;36.00;44.60;;;;;;6246788;28;20317;-72
2021/08/10 13:20:31;;;;;;;2.47;2.20;;;36.40;45.30;;;;;;6245401;28;20342;-72
2021/08/10 13:23:36;;;;;;;3.75;2.92;;;36.40;45.40;;;;;;6247229;28;20226;-72
2021/08/10 13:26:46;;;;;;;2.75;2.13;;;36.40;44.50;;;;;;6247209;28;20203;-73
2021/08/10 13:29:48;;;;;;;3.55;2.35;;;36.70;45.00;;;;;;6246767;28;20289;-73
2021/08/10 13:33:16;;;;;;;4.63;2.28;;;37.10;44.30;;;;;;6245853;28;20192;-73
2021/08/10 13:36:19;;;;;;;5.60;2.10;;;37.60;46.70;;;;;;6246850;28;20688;-72
2021/08/10 13:39:21;;;;;;;4.60;2.17;;;37.60;46.30;;;;;;6246545;28;20696;-72
2021/08/10 13:42:23;;;;;;;2.50;2.30;;;37.90;45.10;;;;;;6246580;28;20180;-73
2021/08/10 13:45:28;;;;;;;4.03;2.38;;;38.20;44.10;;;;;;6245033;28;20246;-73
2021/08/10 13:48:35;;;;;;;3.13;2.70;;;38.40;43.30;;;;;;6245629;28;20208;-73
2021/08/10 13:51:40;;;;;;;3.55;2.38;;;38.50;43.10;;;;;;6246319;28;20696;-73
2021/08/10 13:54:42;;;;;;;2.67;2.47;;;38.90;42.80;;;;;;6244857;28;20645;-72
2021/08/10 13:57:45;;;;;;;2.78;2.17;;;39.00;41.30;;;;;;6245606;28;20196;-73
2021/08/10 14:00:47;;;;;;;4.65;2.90;;;38.60;41.20;;;;;;6245337;28;20241;-72
2021/08/10 14:03:50;;;;;;;2.72;2.50;;;38.80;41.70;;;;;;6245339;28;20188;-72
2021/08/10 14:06:52;;;;;;;3.22;2.30;;;39.00;40.30;;;;;;6246129;28;20686;-72
2021/08/10 14:09:54;;;;;;;4.25;2.30;;;39.10;40.40;;;;;;6244749;28;20216;-72
2021/08/10 14:13:01;;;;;;;2.55;2.30;;;39.20;40.50;;;;;;6244419;28;20207;-72
2021/08/10 14:16:15;;;;;;;2.50;2.30;;;39.40;39.70;;;;;;6245680;28;20708;-72
2021/08/10 14:19:17;;;;;;;2.40;2.20;;;39.80;39.70;;;;;;6244747;28;20197;-73
2021/08/10 14:22:20;;;;;;;2.42;2.15;;;40.20;39.00;;;;;;6244250;28;20203;-73
2021/08/10 14:25:22;;;;;;;2.58;1.95;;;40.50;38.40;;;;;;6245459;28;20330;-73
2021/08/10 14:28:25;;;;;;;3.83;2.67;;;40.80;38.20;;;;;;6244122;28;20212;-74
2021/08/10 14:31:36;;;;;;;4.45;2.45;;;40.50;37.50;;;;;;6244072;28;20188;-73
2021/08/10 14:34:39;;;;;;;3.65;2.20;;;40.70;37.80;;;;;;6244713;28;20614;-73
2021/08/10 14:37:42;;;;;;;4.13;2.30;;;40.70;38.00;;;;;;6244726;28;20188;-74
2021/08/10 14:40:44;;;;;;;2.50;2.30;;;40.90;39.00;;;;;;6245640;28;20203;-74
2021/08/10 14:43:46;;;;;;;3.55;2.40;;;40.90;38.00;;;;;;6246344;28;20188;-73
2021/08/10 14:46:51;;;;;;;5.22;2.20;;;40.30;38.50;;;;;;6243576;28;20223;-74
2021/08/10 14:49:54;;;;;;;2.65;2.20;;;39.70;38.40;;;;;;6243907;28;20345;-75
2021/08/10 14:52:56;;;;;;;2.38;2.10;;;39.70;38.40;;;;;;6245143;28;20553;-74
2021/08/10 14:56:00;;;;;;;2.75;2.55;;;39.80;39.70;;;;;;6243396;28;20192;-74
2021/08/10 14:59:02;;;;;;;3.97;2.22;;;39.50;40.90;;;;;;6244188;28;20199;-72
2021/08/10 15:02:05;;;;;;;2.30;2.10;;;39.70;40.70;;;;;;6243085;28;20183;-74
2021/08/10 15:05:09;;;;;;;2.83;2.42;;;40.20;39.40;;;;;;6244934;28;20361;-74
2021/08/10 15:08:12;;;;;;;2.83;2.33;;;40.80;37.90;;;;;;6244382;28;20250;-73
2021/08/10 15:11:15;;;;;;;3.45;2.47;;;41.30;37.10;;;;;;6243528;28;20192;-74
2021/08/10 15:14:17;;;;;;;6.25;2.28;;;41.20;36.40;;;;;;6243659;28;20192;-74
2021/08/10 15:17:20;;;;;;;4.82;2.33;;;40.40;39.40;;;;;;6259569;28;20724;-74
2021/08/10 15:20:22;;;;;;;3.20;2.35;;;38.80;43.70;;;;;;6243452;28;20196;-74
2021/08/10 15:23:25;;;;;;;5.72;2.53;;;37.20;46.20;;;;;;6242901;28;20234;-74
2021/08/10 15:26:28;;;;;;;3.92;2.28;;;36.00;48.40;;;;;;6243089;28;20671;-74
2021/08/10 15:29:30;;;;;;;2.65;1.90;;;35.10;50.30;;;;;;6244192;28;20208;-74
2021/08/10 15:32:33;;;;;;;3.95;2.30;;;34.30;51.60;;;;;;6242955;28;20615;-74
2021/08/10 15:35:35;;;;;;;5.50;2.38;;;33.60;53.20;;;;;;6243089;28;20571;-74
2021/08/10 15:38:38;;;;;;;3.50;1.95;;;33.00;54.00;;;;;;6243966;28;20226;-74
2021/08/10 15:41:41;;;;;;;3.17;2.53;;;32.50;55.40;;;;;;6242688;28;20196;-74
2021/08/10 15:44:43;;;;;;;8.75;2.42;;;32.20;56.30;;;;;;6244051;28;20199;-73
2021/08/10 15:47:45;;;;;;;4.60;2.05;;;32.30;56.50;;;;;;6243890;28;20208;-73
2021/08/10 15:50:48;;;;;;;5.30;2.45;;;32.70;56.00;;;;;;6243928;28;20176;-73
2021/08/10 15:53:51;;;;;;;3.78;2.40;;;33.20;54.30;;;;;;6243859;28;20196;-74
2021/08/10 15:56:53;;;;;;;2.97;2.60;;;34.60;53.10;;;;;;6243562;28;20192;-74
2021/08/10 15:59:55;;;;;;;3.00;2.13;;;35.80;45.50;;;;;;6243673;28;20717;-74
2021/08/10 16:02:58;;;;;;;3.25;2.25;;;36.70;45.10;;;;;;6244349;28;20192;-74
2021/08/10 16:06:01;;;;;;;6.82;2.30;;;36.60;46.70;;;;;;6243029;28;20200;-74